Time;durP1;ratioP1;P1;durP2;ratioP2;P2;SDS_P1;SDS_P2;PMS_P1;PMS_P2;Temp;Humidity;BMP_temperature;BMP_pressure;BME280_temperature;BME280_humidity;BME280_pressure;Samples;Min_cycle;Max_cycle;Signal;HPM_P1;HPM_P2
2023/01/22 00:01:31;;;;;;;5.10;3.33;;;;;;;-1.39;100.00;99343.13;4203957;28;20044;-72
2023/01/22 00:03:31;;;;;;;5.10;3.25;;;;;;;-1.42;100.00;99341.78;4204332;28;20051;-72
2023/01/22 00:05:32;;;;;;;5.15;3.35;;;;;;;-1.44;100.00;99350.19;4203960;28;20453;-72
2023/01/22 00:07:32;;;;;;;4.57;3.03;;;;;;;-1.48;100.00;99341.00;4201506;28;20047;-72
2023/01/22 00:09:33;;;;;;;5.90;3.15;;;;;;;-1.45;100.00;99343.16;4199828;28;20155;-72
2023/01/22 00:11:33;;;;;;;6.25;3.08;;;;;;;-1.44;100.00;99347.47;4199757;28;20048;-72
2023/01/22 00:13:34;;;;;;;5.55;3.05;;;;;;;-1.38;100.00;99336.63;4201484;28;20136;-72
2023/01/22 00:15:37;;;;;;;4.80;3.17;;;;;;;-1.39;100.00;99345.84;4205598;28;20132;-72
2023/01/22 00:17:37;;;;;;;6.22;3.88;;;;;;;-1.44;100.00;99336.63;4204401;28;20048;-72
2023/01/22 00:19:38;;;;;;;6.05;3.72;;;;;;;-1.43;100.00;99345.56;4198145;28;20181;-72
2023/01/22 00:21:38;;;;;;;4.78;3.03;;;;;;;-1.40;100.00;99347.75;4204843;28;20134;-72
2023/01/22 00:23:39;;;;;;;4.90;3.40;;;;;;;-1.40;100.00;99350.47;4207353;28;20035;-72
2023/01/22 00:25:39;;;;;;;6.32;4.13;;;;;;;-1.45;100.00;99347.75;4200371;28;20101;-72
2023/01/22 00:27:40;;;;;;;8.38;3.85;;;;;;;-1.46;100.00;99354.28;4201805;28;20071;-72
2023/01/22 00:29:41;;;;;;;5.97;3.53;;;;;;;-1.51;100.00;99338.81;4205566;28;20044;-72
2023/01/22 00:31:41;;;;;;;6.72;4.57;;;;;;;-1.51;100.00;99346.16;4210394;28;20460;-72
2023/01/22 00:33:42;;;;;;;5.35;3.45;;;;;;;-1.48;100.00;99346.44;4202540;28;20068;-73
2023/01/22 00:35:43;;;;;;;8.40;4.00;;;;;;;-1.48;100.00;99340.19;4202859;28;21001;-72
2023/01/22 00:37:46;;;;;;;5.80;3.78;;;;;;;-1.45;100.00;99345.06;4205525;28;20048;-72
2023/01/22 00:39:46;;;;;;;5.35;3.30;;;;;;;-1.47;100.00;99339.09;4208090;28;20391;-72
2023/01/22 00:41:48;;;;;;;6.28;3.60;;;;;;;-1.44;100.00;99344.75;4208021;28;20044;-72
2023/01/22 00:43:49;;;;;;;6.97;3.75;;;;;;;-1.39;100.00;99346.66;4218368;28;20070;-72
2023/01/22 00:45:49;;;;;;;6.63;3.85;;;;;;;-1.42;100.00;99345.28;4210961;28;20043;-72
2023/01/22 00:47:50;;;;;;;6.70;4.03;;;;;;;-1.43;100.00;99340.97;4217277;28;20087;-72
2023/01/22 00:49:51;;;;;;;7.28;4.13;;;;;;;-1.38;100.00;99344.75;4218995;28;20051;-72
2023/01/22 00:51:51;;;;;;;7.03;4.55;;;;;;;-1.39;100.00;99341.22;4207946;28;20048;-72
2023/01/22 00:53:51;;;;;;;7.47;4.72;;;;;;;-1.43;100.00;99340.97;4202109;28;20063;-73
2023/01/22 00:55:53;;;;;;;7.47;4.05;;;;;;;-1.48;100.00;99343.72;4202877;28;20072;-73
2023/01/22 00:57:54;;;;;;;5.97;3.67;;;;;;;-1.37;100.00;99343.66;4218746;28;20102;-72
2023/01/22 00:59:54;;;;;;;7.40;4.00;;;;;;;-1.42;100.00;99344.47;4218206;28;20071;-72
2023/01/22 01:01:54;;;;;;;5.82;4.25;;;;;;;-1.41;100.00;99343.38;4217088;28;20091;-73
2023/01/22 01:03:55;;;;;;;7.82;4.20;;;;;;;-1.41;100.00;99348.81;4205325;28;20052;-72
2023/01/22 01:06:00;;;;;;;6.78;4.20;;;;;;;-1.44;100.00;99343.97;4205694;28;20122;-72
2023/01/22 01:08:01;;;;;;;8.70;4.72;;;;;;;-1.37;100.00;99347.19;4208214;28;20043;-72
2023/01/22 01:10:01;;;;;;;8.95;4.20;;;;;;;-1.37;100.00;99359.94;4203633;28;20077;-72
2023/01/22 01:12:01;;;;;;;7.20;4.07;;;;;;;-1.36;100.00;99348.00;4218927;28;20376;-72
2023/01/22 01:14:02;;;;;;;6.45;3.85;;;;;;;-1.38;100.00;99351.00;4215837;28;20146;-72
2023/01/22 01:16:06;;;;;;;7.45;4.63;;;;;;;-1.38;100.00;99350.19;4210728;28;20489;-72
2023/01/22 01:18:11;;;;;;;6.35;4.32;;;;;;;-1.40;100.00;99345.03;4218083;28;20136;-72
2023/01/22 01:20:12;;;;;;;7.45;4.13;;;;;;;-1.45;100.00;99342.34;4217468;28;20126;-72
2023/01/22 01:22:12;;;;;;;6.28;3.83;;;;;;;-1.44;100.00;99349.38;4216192;28;20080;-72
2023/01/22 01:24:13;;;;;;;7.40;4.68;;;;;;;-1.44;100.00;99342.06;4216780;28;20036;-72
2023/01/22 01:26:15;;;;;;;7.53;4.88;;;;;;;-1.47;100.00;99341.81;4212277;28;20036;-72
2023/01/22 01:28:16;;;;;;;7.57;4.30;;;;;;;-1.45;100.00;99345.06;4209674;28;20237;-72
2023/01/22 01:30:16;;;;;;;8.45;4.40;;;;;;;-1.43;100.00;99349.09;4204590;28;20031;-72
2023/01/22 01:32:17;;;;;;;8.13;4.68;;;;;;;-1.38;100.00;99347.47;4205878;28;20151;-72
2023/01/22 01:34:17;;;;;;;5.90;3.70;;;;;;;-1.36;100.00;99350.72;4201993;28;20032;-73
2023/01/22 01:36:19;;;;;;;6.30;4.10;;;;;;;-1.32;100.00;99335.50;4202985;28;20097;-72
2023/01/22 01:38:20;;;;;;;5.80;3.80;;;;;;;-1.33;100.00;99337.38;4204437;28;20530;-72
2023/01/22 01:40:20;;;;;;;6.20;3.95;;;;;;;-1.30;100.00;99344.19;4218872;28;20134;-72
2023/01/22 01:42:28;;;;;;;6.63;4.18;;;;;;;-1.32;100.00;99354.50;4217244;28;20124;-72
2023/01/22 01:44:30;;;;;;;7.13;4.20;;;;;;;-1.37;100.00;99355.34;4217192;28;20721;-72
2023/01/22 01:46:31;;;;;;;6.65;4.15;;;;;;;-1.40;100.00;99346.94;4217804;28;20050;-72
2023/01/22 01:48:40;;;;;;;6.32;4.15;;;;;;;-1.40;100.00;99355.09;4217922;28;20315;-72
2023/01/22 01:50:44;;;;;;;7.93;4.85;;;;;;;-1.43;100.00;99346.38;4210153;28;20131;-72
2023/01/22 01:52:44;;;;;;;8.15;4.78;;;;;;;-1.41;100.00;99346.09;4217282;28;20044;-72
2023/01/22 01:54:50;;;;;;;7.53;4.75;;;;;;;-1.34;100.00;99349.34;4216642;28;20036;-72
2023/01/22 01:56:56;;;;;;;7.28;4.07;;;;;;;-1.37;100.00;99347.19;4214234;28;20131;-72
2023/01/22 01:59:06;;;;;;;8.15;4.55;;;;;;;-1.34;100.00;99348.53;4202753;28;20045;-72
2023/01/22 02:01:13;;;;;;;7.15;3.92;;;;;;;-1.34;100.00;99352.03;4217234;28;20051;-72
2023/01/22 02:03:14;;;;;;;7.03;4.43;;;;;;;-1.33;100.00;99342.00;4201652;28;20076;-72
2023/01/22 02:05:19;;;;;;;9.23;4.75;;;;;;;-1.36;100.00;99345.28;4213942;28;20758;-72
2023/01/22 02:07:19;;;;;;;8.05;5.15;;;;;;;-1.36;100.00;99358.84;4216628;28;20039;-72
2023/01/22 02:09:20;;;;;;;7.05;4.32;;;;;;;-1.34;100.00;99356.66;4214511;28;20526;-72
2023/01/22 02:11:22;;;;;;;8.20;4.80;;;;;;;-1.31;100.00;99351.50;4205012;28;20051;-72
2023/01/22 02:13:27;;;;;;;7.18;4.47;;;;;;;-1.34;100.00;99352.03;4204783;28;20341;-72
2023/01/22 02:15:28;;;;;;;7.00;4.40;;;;;;;-1.33;100.00;99359.09;4206498;28;20040;-73
2023/01/22 02:17:28;;;;;;;7.90;4.80;;;;;;;-1.33;100.00;99355.56;4205376;28;20185;-72
2023/01/22 02:19:29;;;;;;;5.90;4.10;;;;;;;-1.32;100.00;99363.47;4212315;28;20044;-72
2023/01/22 02:21:32;;;;;;;7.20;4.70;;;;;;;-1.37;100.00;99362.66;4205192;28;20058;-72
2023/01/22 02:23:32;;;;;;;8.95;5.35;;;;;;;-1.35;100.00;99363.19;4210525;28;20047;-72
2023/01/22 02:25:33;;;;;;;6.88;4.40;;;;;;;-1.33;100.00;99366.44;4202416;28;20048;-72
2023/01/22 02:27:33;;;;;;;8.05;4.68;;;;;;;-1.36;100.00;99361.56;4214896;28;20468;-72
2023/01/22 02:29:34;;;;;;;6.80;4.03;;;;;;;-1.36;100.00;99365.09;4219721;28;20690;-72
2023/01/22 02:31:36;;;;;;;8.93;4.72;;;;;;;-1.33;100.00;99361.00;4221290;27;20040;-72
2023/01/22 02:33:36;;;;;;;5.95;3.78;;;;;;;-1.34;100.00;99370.25;4212531;28;20043;-72
2023/01/22 02:35:36;;;;;;;8.00;4.63;;;;;;;-1.39;100.00;99371.09;4204885;28;20526;-72
2023/01/22 02:37:37;;;;;;;7.05;4.15;;;;;;;-1.38;100.00;99378.16;4205058;28;20044;-72
2023/01/22 02:39:37;;;;;;;5.88;3.47;;;;;;;-1.35;100.00;99364.00;4215287;28;20036;-72
2023/01/22 02:41:37;;;;;;;6.15;3.83;;;;;;;-1.28;100.00;99372.66;4204703;28;20052;-73
2023/01/22 02:43:38;;;;;;;6.70;4.00;;;;;;;-1.34;100.00;99372.97;4204336;28;20059;-73
2023/01/22 02:45:38;;;;;;;6.22;3.60;;;;;;;-1.32;100.00;99374.31;4204591;28;20051;-72
2023/01/22 02:47:38;;;;;;;5.55;3.63;;;;;;;-1.29;100.00;99375.66;4204432;28;20093;-72
2023/01/22 02:49:39;;;;;;;6.10;3.78;;;;;;;-1.34;100.00;99376.47;4212895;28;20489;-72
2023/01/22 02:51:39;;;;;;;6.78;3.92;;;;;;;-1.34;100.00;99376.47;4220781;28;20059;-72
2023/01/22 02:53:40;;;;;;;7.00;4.15;;;;;;;-1.32;100.00;99374.31;4209785;27;20140;-72
2023/01/22 02:55:40;;;;;;;6.30;3.67;;;;;;;-1.30;100.00;99376.75;4204544;28;20124;-73
2023/01/22 02:57:41;;;;;;;5.60;3.45;;;;;;;-1.30;100.00;99371.31;4210964;28;20446;-72
2023/01/22 02:59:41;;;;;;;5.90;3.92;;;;;;;-1.29;100.00;99371.03;4220103;28;20047;-72
2023/01/22 03:01:41;;;;;;;5.47;3.45;;;;;;;-1.28;100.00;99374.56;4218674;28;20128;-72
2023/01/22 03:03:42;;;;;;;5.32;3.22;;;;;;;-1.28;100.00;99369.13;4216115;28;20118;-72
2023/01/22 03:05:51;;;;;;;6.65;4.18;;;;;;;-1.28;100.00;99371.84;4208928;28;20040;-72
2023/01/22 03:07:52;;;;;;;5.55;3.75;;;;;;;-1.31;100.00;99367.81;4212092;28;20032;-73
2023/01/22 03:09:52;;;;;;;6.28;3.75;;;;;;;-1.29;100.00;99372.94;4219291;28;20540;-72
2023/01/22 03:11:52;;;;;;;6.22;3.75;;;;;;;-1.30;100.00;99369.41;4218300;28;20035;-73
2023/01/22 03:23:09;;;;;;;5.72;3.60;;;;;;;-1.30;100.00;99368.63;4214905;28;20444;-72
2023/01/22 03:25:09;;;;;;;8.32;4.40;;;;;;;-1.31;100.00;99370.50;4214720;28;20075;-73
2023/01/22 03:27:10;;;;;;;6.68;3.83;;;;;;;-1.30;100.00;99366.72;4211041;28;20139;-72
2023/01/22 03:29:10;;;;;;;7.63;4.60;;;;;;;-1.32;100.00;99366.19;4210206;28;20072;-72
2023/01/22 03:31:11;;;;;;;6.45;4.10;;;;;;;-1.31;100.00;99365.09;4211649;28;20036;-72
2023/01/22 03:33:11;;;;;;;5.63;3.58;;;;;;;-1.33;100.00;99366.44;4218896;28;20077;-73
2023/01/22 03:35:12;;;;;;;5.57;4.05;;;;;;;-1.33;100.00;99366.44;4218149;28;20104;-73
2023/01/22 03:37:13;;;;;;;7.22;4.32;;;;;;;-1.32;100.00;99363.47;4220314;28;20456;-72
2023/01/22 03:39:13;;;;;;;6.65;3.92;;;;;;;-1.34;100.00;99356.66;4211597;28;20040;-73
2023/01/22 03:41:16;;;;;;;6.45;3.92;;;;;;;-1.36;100.00;99362.38;4206320;28;20155;-72
2023/01/22 03:43:16;;;;;;;6.78;4.10;;;;;;;-1.35;100.00;99365.91;4218201;28;20111;-73
2023/01/22 03:45:16;;;;;;;5.95;4.00;;;;;;;-1.34;100.00;99362.91;4219320;28;20044;-72
2023/01/22 03:47:17;;;;;;;6.03;4.20;;;;;;;-1.35;100.00;99366.72;4207224;28;20050;-72
2023/01/22 03:49:17;;;;;;;7.22;4.40;;;;;;;-1.34;100.00;99365.63;4207407;28;20178;-72
2023/01/22 03:51:18;;;;;;;8.48;4.43;;;;;;;-1.34;100.00;99370.25;4202626;28;20079;-73
2023/01/22 03:53:18;;;;;;;7.53;5.10;;;;;;;-1.35;100.00;99374.06;4202990;28;20044;-73
2023/01/22 03:55:18;;;;;;;5.53;3.38;;;;;;;-1.33;100.00;99377.28;4203570;28;20044;-72
2023/01/22 03:57:19;;;;;;;6.85;4.00;;;;;;;-1.33;100.00;99380.81;4203606;28;20387;-72
2023/01/22 03:59:19;;;;;;;6.20;4.18;;;;;;;-1.32;100.00;99382.47;4218684;28;20044;-72
2023/01/22 04:01:22;;;;;;;6.97;3.85;;;;;;;-1.31;100.00;99373.22;4218189;28;20055;-72
2023/01/22 04:03:25;;;;;;;8.65;4.40;;;;;;;-1.31;100.00;99381.38;4217635;28;20088;-72
2023/01/22 04:05:25;;;;;;;6.43;3.85;;;;;;;-1.32;100.00;99377.03;4208373;28;20432;-72
2023/01/22 04:07:25;;;;;;;6.05;4.03;;;;;;;-1.29;100.00;99373.75;4217801;28;20124;-72
2023/01/22 04:09:26;;;;;;;7.75;4.55;;;;;;;-1.28;100.00;99378.09;4218159;28;20085;-72
2023/01/22 04:11:26;;;;;;;7.88;4.25;;;;;;;-1.25;100.00;99379.44;4205995;28;20067;-73
2023/01/22 04:13:28;;;;;;;6.75;3.95;;;;;;;-1.30;100.00;99382.19;4217258;28;20135;-73
2023/01/22 04:15:29;;;;;;;7.18;4.32;;;;;;;-1.32;100.00;99385.19;4217429;28;20036;-72
2023/01/22 04:17:29;;;;;;;7.38;4.80;;;;;;;-1.35;100.00;99383.00;4210451;28;20047;-73
2023/01/22 04:19:29;;;;;;;6.63;4.70;;;;;;;-1.34;100.00;99381.91;4203631;28;20043;-73
2023/01/22 04:21:29;;;;;;;7.28;4.13;;;;;;;-1.35;100.00;99380.28;4202912;28;20097;-72
2023/01/22 04:23:30;;;;;;;7.50;4.85;;;;;;;-1.32;100.00;99385.19;4202363;28;20535;-73
2023/01/22 04:25:31;;;;;;;6.95;4.35;;;;;;;-1.31;100.00;99383.28;4202889;28;20055;-73
2023/01/22 04:27:36;;;;;;;8.77;5.15;;;;;;;-1.32;100.00;99389.81;4203090;28;20490;-73
2023/01/22 04:29:36;;;;;;;7.35;4.47;;;;;;;-1.32;100.00;99387.91;4205258;28;20060;-72
2023/01/22 04:31:37;;;;;;;8.13;5.00;;;;;;;-1.32;100.00;99387.09;4216716;28;20549;-73
2023/01/22 04:33:37;;;;;;;7.30;4.43;;;;;;;-1.33;100.00;99388.16;4201856;28;20411;-73
2023/01/22 04:35:38;;;;;;;7.65;5.03;;;;;;;-1.36;100.00;99383.28;4216055;28;20071;-72
2023/01/22 04:37:39;;;;;;;7.25;4.60;;;;;;;-1.32;100.00;99397.94;4217959;28;20036;-73
2023/01/22 04:39:39;;;;;;;7.25;4.43;;;;;;;-1.33;100.00;99390.88;4212095;28;20048;-72
2023/01/22 04:41:39;;;;;;;7.57;4.60;;;;;;;-1.31;100.00;99400.38;4210616;28;20404;-72
2023/01/22 04:43:40;;;;;;;8.00;4.70;;;;;;;-1.31;100.00;99394.94;4202045;28;20047;-73
2023/01/22 04:45:40;;;;;;;6.47;4.00;;;;;;;-1.31;100.00;99394.13;4202689;28;20040;-73
2023/01/22 04:47:42;;;;;;;6.72;4.45;;;;;;;-1.38;100.00;99383.56;4210390;28;20342;-73
2023/01/22 04:49:42;;;;;;;7.35;4.05;;;;;;;-1.33;100.00;99390.88;4215791;28;20464;-73
2023/01/22 04:51:43;;;;;;;7.82;4.68;;;;;;;-1.36;100.00;99402.28;4216470;28;20083;-73
2023/01/22 04:53:43;;;;;;;7.90;4.40;;;;;;;-1.36;100.00;99410.44;4202122;28;20064;-73
2023/01/22 04:55:44;;;;;;;8.55;4.65;;;;;;;-1.36;100.00;99403.09;4217360;28;20067;-72
2023/01/22 04:57:44;;;;;;;8.13;4.63;;;;;;;-1.38;100.00;99399.84;4217778;28;20046;-73
2023/01/22 04:59:44;;;;;;;7.55;5.05;;;;;;;-1.38;100.00;99393.63;4217901;28;20698;-73
2023/01/22 05:01:45;;;;;;;7.18;4.18;;;;;;;-1.37;100.00;99404.19;4215109;28;20244;-73
2023/01/22 05:03:45;;;;;;;8.07;5.07;;;;;;;-1.35;100.00;99399.28;4201832;28;20042;-72
2023/01/22 05:05:45;;;;;;;7.65;4.38;;;;;;;-1.38;100.00;99397.16;4202212;28;20446;-72
2023/01/22 05:07:46;;;;;;;7.45;5.28;;;;;;;-1.36;100.00;99410.44;4211326;28;20441;-72
2023/01/22 05:09:46;;;;;;;9.18;4.95;;;;;;;-1.33;100.00;99409.88;4210286;28;20536;-73
2023/01/22 05:11:46;;;;;;;8.85;4.72;;;;;;;-1.39;100.00;99406.38;4207368;28;20135;-72
2023/01/22 05:13:47;;;;;;;7.68;4.57;;;;;;;-1.35;100.00;99417.50;4201978;28;20182;-72
2023/01/22 05:15:47;;;;;;;7.07;4.57;;;;;;;-1.36;100.00;99413.97;4211260;28;20066;-73
2023/01/22 05:17:47;;;;;;;8.63;5.15;;;;;;;-1.38;100.00;99413.44;4216623;28;20116;-73
2023/01/22 05:19:48;;;;;;;8.05;4.88;;;;;;;-1.36;100.00;99418.56;4217753;28;20540;-73
2023/01/22 05:21:48;;;;;;;7.57;4.53;;;;;;;-1.35;100.00;99415.59;4218987;28;20055;-73
2023/01/22 05:23:48;;;;;;;7.30;4.25;;;;;;;-1.31;100.00;99421.28;4209293;28;20040;-73
2023/01/22 05:25:49;;;;;;;8.23;4.75;;;;;;;-1.32;100.00;99419.66;4207020;28;20051;-73
2023/01/22 05:27:49;;;;;;;9.48;4.85;;;;;;;-1.32;100.00;99419.66;4202715;28;20052;-73
2023/01/22 05:29:50;;;;;;;7.80;4.43;;;;;;;-1.33;100.00;99432.41;4201337;28;20047;-73
2023/01/22 05:31:51;;;;;;;7.20;4.18;;;;;;;-1.33;100.00;99429.69;4202436;28;20098;-73
2023/01/22 05:33:51;;;;;;;6.65;4.28;;;;;;;-1.34;100.00;99429.97;4201491;28;20040;-73
2023/01/22 05:35:56;;;;;;;8.27;4.38;;;;;;;-1.31;100.00;99429.44;4203246;28;20131;-73
2023/01/22 05:37:56;;;;;;;7.03;4.38;;;;;;;-1.34;100.00;99428.06;4202156;28;20465;-72
2023/01/22 05:39:57;;;;;;;7.00;4.13;;;;;;;-1.30;100.00;99434.59;4202346;28;20063;-72
2023/01/22 05:41:57;;;;;;;5.05;3.47;;;;;;;-1.31;100.00;99430.25;4202593;28;20074;-72
2023/01/22 05:44:00;;;;;;;7.82;4.60;;;;;;;-1.30;100.00;99440.00;4218121;28;20122;-73
2023/01/22 05:46:01;;;;;;;6.40;4.25;;;;;;;-1.33;100.00;99434.31;4220358;28;20036;-72
2023/01/22 05:48:01;;;;;;;8.98;5.28;;;;;;;-1.31;100.00;99443.00;4213703;28;20873;-73
2023/01/22 05:50:01;;;;;;;7.60;4.22;;;;;;;-1.33;100.00;99445.97;4222256;28;20070;-73
2023/01/22 05:52:02;;;;;;;8.18;4.85;;;;;;;-1.33;100.00;99442.44;4207447;28;20028;-72
2023/01/22 05:54:03;;;;;;;7.82;4.43;;;;;;;-1.25;100.00;99444.59;4204505;28;20028;-73
2023/01/22 05:56:04;;;;;;;8.25;4.75;;;;;;;-1.29;100.00;99441.63;4206043;28;20052;-73
2023/01/22 05:58:05;;;;;;;9.82;5.43;;;;;;;-1.27;100.00;99446.78;4214230;28;20034;-73
2023/01/22 06:00:07;;;;;;;7.40;4.25;;;;;;;-1.27;100.00;99449.50;4219650;28;20028;-73
2023/01/22 06:02:07;;;;;;;8.73;5.10;;;;;;;-1.30;100.00;99452.78;4217950;28;20032;-73
2023/01/22 06:04:08;;;;;;;8.02;4.80;;;;;;;-1.30;100.00;99445.44;4213172;27;20034;-73
2023/01/22 06:06:13;;;;;;;8.80;5.18;;;;;;;-1.35;100.00;99447.34;4211939;28;20024;-73
2023/01/22 06:08:13;;;;;;;9.15;4.72;;;;;;;-1.35;100.00;99450.88;4204689;28;20491;-73
2023/01/22 06:10:14;;;;;;;9.27;5.53;;;;;;;-1.35;100.00;99447.34;4205215;28;20055;-73
2023/01/22 06:12:14;;;;;;;10.18;5.35;;;;;;;-1.32;100.00;99457.69;4206314;28;20151;-73
2023/01/22 06:14:15;;;;;;;8.93;4.70;;;;;;;-1.34;100.00;99455.22;4204655;28;20028;-73
2023/01/22 06:16:15;;;;;;;10.13;5.70;;;;;;;-1.33;100.00;99456.84;4209948;28;20102;-72
2023/01/22 06:18:15;;;;;;;10.93;5.53;;;;;;;-1.32;100.00;99452.25;4205212;28;20028;-73
2023/01/22 06:20:16;;;;;;;9.23;5.13;;;;;;;-1.32;100.00;99449.53;4214115;28;20064;-72
2023/01/22 06:22:18;;;;;;;9.90;5.20;;;;;;;-1.33;100.00;99442.44;4210566;28;20139;-72
2023/01/22 06:24:18;;;;;;;9.98;5.55;;;;;;;-1.34;100.00;99451.69;4212571;27;20016;-73
2023/01/22 06:26:18;;;;;;;6.60;4.40;;;;;;;-1.34;100.00;99459.84;4210742;28;20039;-73
2023/01/22 06:28:20;;;;;;;8.00;4.57;;;;;;;-1.31;100.00;99462.00;4205402;28;20307;-73
2023/01/22 06:30:20;;;;;;;7.32;4.60;;;;;;;-1.32;100.00;99457.69;4220472;28;20506;-73
2023/01/22 06:32:20;;;;;;;8.45;5.22;;;;;;;-1.31;100.00;99454.69;4207206;28;20143;-73
2023/01/22 06:34:21;;;;;;;10.07;5.38;;;;;;;-1.31;100.00;99459.31;4207029;28;20127;-73
2023/01/22 06:36:21;;;;;;;10.02;4.95;;;;;;;-1.34;100.00;99457.94;4219762;27;20451;-73
2023/01/22 06:38:23;;;;;;;8.80;4.82;;;;;;;-1.31;100.00;99465.53;4220211;28;20039;-73
2023/01/22 06:40:23;;;;;;;8.07;5.05;;;;;;;-1.28;100.00;99459.53;4220469;27;20479;-73
2023/01/22 06:42:23;;;;;;;10.52;4.90;;;;;;;-1.30;100.00;99469.06;4214711;28;20068;-73
2023/01/22 06:44:24;;;;;;;10.15;5.00;;;;;;;-1.33;100.00;99456.03;4204377;28;20086;-73
2023/01/22 06:46:24;;;;;;;9.30;5.70;;;;;;;-1.31;100.00;99476.41;4216703;28;20051;-73
2023/01/22 06:48:24;;;;;;;9.57;5.22;;;;;;;-1.32;100.00;99468.53;4207033;28;20383;-72
2023/01/22 06:50:25;;;;;;;9.20;4.53;;;;;;;-1.33;100.00;99473.13;4211394;28;20653;-73
2023/01/22 06:52:25;;;;;;;9.60;4.95;;;;;;;-1.36;100.00;99467.44;4209495;28;20528;-73
2023/01/22 06:54:25;;;;;;;8.98;5.70;;;;;;;-1.34;100.00;99476.94;4220008;28;20177;-73
2023/01/22 06:56:27;;;;;;;9.40;5.15;;;;;;;-1.34;100.00;99470.69;4208074;27;20480;-73
2023/01/22 06:58:27;;;;;;;8.20;4.75;;;;;;;-1.35;100.00;99474.50;4212623;28;20055;-73
2023/01/22 07:00:28;;;;;;;8.60;4.63;;;;;;;-1.36;100.00;99473.69;4211916;28;20047;-73
2023/01/22 07:02:30;;;;;;;10.27;4.53;;;;;;;-1.31;100.00;99486.44;4210747;28;20044;-73
2023/01/22 07:04:30;;;;;;;9.23;4.80;;;;;;;-1.29;100.00;99479.66;4219553;28;20379;-73
2023/01/22 07:06:30;;;;;;;7.82;4.55;;;;;;;-1.31;100.00;99479.13;4211721;27;20052;-73
2023/01/22 07:08:32;;;;;;;8.88;4.97;;;;;;;-1.31;100.00;99500.03;4214051;28;20043;-73
2023/01/22 07:10:32;;;;;;;10.48;5.60;;;;;;;-1.31;100.00;99494.59;4205415;28;20128;-73
2023/01/22 07:12:33;;;;;;;8.55;5.20;;;;;;;-1.31;100.00;99492.69;4211065;28;20059;-73
2023/01/22 07:14:33;;;;;;;8.70;4.93;;;;;;;-1.31;100.00;99492.69;4212128;28;20540;-73
2023/01/22 07:16:33;;;;;;;8.82;5.05;;;;;;;-1.29;100.00;99495.94;4205036;27;20171;-73
2023/01/22 07:18:34;;;;;;;9.98;4.82;;;;;;;-1.30;100.00;99505.19;4204941;28;20044;-73
2023/01/22 07:20:34;;;;;;;9.13;5.00;;;;;;;-1.33;100.00;99494.03;4208508;28;20085;-73
2023/01/22 07:22:34;;;;;;;10.57;4.65;;;;;;;-1.29;100.00;99500.56;4210524;28;20519;-73
2023/01/22 07:24:35;;;;;;;8.15;4.82;;;;;;;-1.28;100.00;99500.28;4212725;28;20291;-73
2023/01/22 07:26:36;;;;;;;8.10;4.50;;;;;;;-1.28;100.00;99504.91;4201833;28;20059;-73
2023/01/22 07:28:36;;;;;;;9.55;5.60;;;;;;;-1.31;100.00;99505.47;4210852;28;20160;-73
2023/01/22 07:30:39;;;;;;;7.90;4.60;;;;;;;-1.28;100.00;99510.31;4211413;28;20331;-73
2023/01/22 07:32:39;;;;;;;;;;;;;;;-1.27;100.00;99518.19;4219297;28;20054;-73
2023/01/22 07:34:39;;;;;;;7.72;4.38;;;;;;;-1.27;100.00;99528.25;4218051;28;19919;-73
2023/01/22 07:36:40;;;;;;;7.75;4.30;;;;;;;-1.25;100.00;99521.44;4219287;28;20043;-73
2023/01/22 07:38:40;;;;;;;9.43;5.03;;;;;;;-1.23;100.00;99521.19;4219069;28;20063;-73
2023/01/22 07:40:40;;;;;;;8.63;5.00;;;;;;;-1.24;100.00;99525.81;4204870;28;20048;-73
2023/01/22 07:42:41;;;;;;;8.63;4.68;;;;;;;-1.28;100.00;99532.03;4207531;28;20270;-73
2023/01/22 07:44:41;;;;;;;8.07;5.10;;;;;;;-1.28;100.00;99537.47;4217746;28;20051;-73
2023/01/22 07:46:41;;;;;;;9.73;4.82;;;;;;;-1.26;100.00;99540.72;4210618;27;20093;-73
2023/01/22 07:48:41;;;;;;;9.82;5.50;;;;;;;-1.29;100.00;99533.13;4201954;28;20328;-73
2023/01/22 07:50:42;;;;;;;8.77;5.07;;;;;;;-1.29;100.00;99533.13;4200014;28;20094;-73
2023/01/22 07:52:44;;;;;;;10.50;5.53;;;;;;;-1.32;100.00;99531.78;4206901;28;20472;-73
2023/01/22 07:54:44;;;;;;;7.33;4.43;;;;;;;-1.30;100.00;99526.91;4209499;28;20047;-72
2023/01/22 07:56:44;;;;;;;9.45;6.07;;;;;;;-1.31;100.00;99525.28;4208089;28;20273;-73
2023/01/22 07:58:45;;;;;;;8.75;6.03;;;;;;;-1.31;100.00;99533.41;4210617;28;20044;-72
2023/01/22 08:00:46;;;;;;;8.95;5.30;;;;;;;-1.26;100.00;99536.09;4208478;28;20058;-73
2023/01/22 08:02:49;;;;;;;8.40;4.82;;;;;;;-1.27;100.00;99541.81;4210469;27;20039;-73
2023/01/22 08:04:49;;;;;;;7.43;4.90;;;;;;;-1.27;100.00;99548.06;4207603;28;20044;-73
2023/01/22 08:06:49;;;;;;;9.20;5.00;;;;;;;-1.26;100.00;99546.16;4211052;28;20044;-73
2023/01/22 08:08:49;;;;;;;8.32;4.95;;;;;;;-1.27;100.00;99542.63;4207019;28;20067;-73
2023/01/22 08:10:50;;;;;;;8.43;4.25;;;;;;;-1.27;100.00;99548.06;4211094;28;20390;-73
2023/01/22 08:12:50;;;;;;;8.52;5.00;;;;;;;-1.26;100.00;99546.97;4202230;28;20040;-73
2023/01/22 08:14:50;;;;;;;7.28;3.92;;;;;;;-1.26;100.00;99552.41;4217644;28;20040;-73
2023/01/22 08:16:51;;;;;;;6.40;3.80;;;;;;;-1.22;100.00;99558.94;4205625;28;20119;-73
2023/01/22 08:18:51;;;;;;;9.02;5.22;;;;;;;-1.20;100.00;99554.03;4203068;28;20059;-73
2023/01/22 08:20:52;;;;;;;6.13;4.07;;;;;;;-1.20;100.00;99555.94;4203179;28;20491;-73
2023/01/22 08:22:59;;;;;;;7.82;4.60;;;;;;;-1.19;100.00;99555.66;4210484;28;20248;-73
2023/01/22 08:24:59;;;;;;;7.05;4.03;;;;;;;-1.22;100.00;99558.94;4218873;28;20051;-73
2023/01/22 08:27:00;;;;;;;7.13;4.30;;;;;;;-1.18;100.00;99562.69;4216839;28;20058;-73
2023/01/22 08:29:00;;;;;;;6.45;4.03;;;;;;;-1.17;100.00;99563.50;4206691;28;20096;-73
2023/01/22 08:31:02;;;;;;;8.10;4.25;;;;;;;-1.18;100.00;99560.00;4203948;28;20249;-72
2023/01/22 08:33:02;;;;;;;8.13;4.70;;;;;;;-1.16;100.00;99560.56;4202297;28;20044;-72
2023/01/22 08:35:03;;;;;;;6.53;4.30;;;;;;;-1.11;100.00;99565.13;4218435;28;20093;-72
2023/01/22 08:37:03;;;;;;;6.82;4.07;;;;;;;-1.15;100.00;99561.38;4215888;28;20040;-72
2023/01/22 08:39:03;;;;;;;6.40;3.85;;;;;;;-1.16;100.00;99565.97;4200738;28;20437;-72
2023/01/22 08:41:04;;;;;;;6.80;4.07;;;;;;;-1.14;100.00;99568.41;4203828;28;20564;-72
2023/01/22 08:43:04;;;;;;;7.68;4.03;;;;;;;-1.12;100.00;99579.81;4203969;28;20036;-72
2023/01/22 08:45:05;;;;;;;11.57;5.90;;;;;;;-1.13;100.00;99573.56;4205980;28;20044;-73
2023/01/22 08:47:06;;;;;;;7.10;4.10;;;;;;;-1.14;100.00;99571.13;4201903;28;20055;-72
2023/01/22 08:49:06;;;;;;;7.75;5.00;;;;;;;-1.09;100.00;99581.16;4207008;28;20040;-73
2023/01/22 08:51:07;;;;;;;9.05;5.45;;;;;;;-1.06;100.00;99577.91;4204556;28;20561;-73
2023/01/22 08:53:08;;;;;;;8.68;5.00;;;;;;;-1.11;100.00;99573.28;4204167;28;20044;-72
2023/01/22 08:55:08;;;;;;;7.03;4.75;;;;;;;-1.06;100.00;99575.19;4199043;28;20051;-72
2023/01/22 08:57:09;;;;;;;7.97;4.88;;;;;;;-1.09;100.00;99571.09;4203957;28;20051;-73
2023/01/22 08:59:09;;;;;;;10.25;5.82;;;;;;;-1.06;100.00;99580.63;4205058;28;20067;-73
2023/01/22 09:01:17;;;;;;;12.38;5.07;;;;;;;-1.05;100.00;99576.81;4208359;28;20650;-73
2023/01/22 09:03:17;;;;;;;7.65;5.05;;;;;;;-1.02;100.00;99584.41;4202402;28;20382;-72
2023/01/22 09:05:18;;;;;;;7.55;4.45;;;;;;;-0.98;100.00;99588.22;4207669;28;20040;-72
2023/01/22 09:07:18;;;;;;;8.80;5.65;;;;;;;-1.00;100.00;99587.66;4202324;28;20350;-72
2023/01/22 09:09:18;;;;;;;7.38;4.80;;;;;;;-0.95;100.00;99591.19;4205464;28;20067;-73
2023/01/22 09:11:19;;;;;;;10.38;6.22;;;;;;;-0.99;100.00;99587.41;4204487;28;20040;-73
2023/01/22 09:13:19;;;;;;;6.45;4.45;;;;;;;-0.92;100.00;99585.19;4204648;28;20040;-73
2023/01/22 09:15:19;;;;;;;9.38;5.20;;;;;;;-0.93;100.00;99585.47;4203354;28;20079;-73
2023/01/22 09:17:19;;;;;;;7.10;4.38;;;;;;;-0.95;100.00;99591.19;4203031;28;20379;-73
2023/01/22 09:19:20;;;;;;;7.05;5.07;;;;;;;-0.97;100.00;99593.38;4210692;28;20503;-73
2023/01/22 09:21:20;;;;;;;8.65;4.50;;;;;;;-0.96;100.00;99597.72;4210288;28;20537;-73
2023/01/22 09:23:21;;;;;;;8.60;6.03;;;;;;;-0.95;100.00;99599.34;4208967;28;20043;-73
2023/01/22 09:25:21;;;;;;;8.48;5.93;;;;;;;-0.91;100.00;99596.88;4210850;28;20483;-73
2023/01/22 09:27:21;;;;;;;9.32;5.90;;;;;;;-0.91;100.00;99602.31;4207215;28;20506;-73
2023/01/22 09:29:22;;;;;;;9.20;4.65;;;;;;;-0.92;100.00;99608.81;4210496;28;20167;-73
2023/01/22 09:31:22;;;;;;;8.18;5.53;;;;;;;-0.90;100.00;99610.19;4208550;28;20038;-73